Time;durP1;ratioP1;P1;durP2;ratioP2;P2;SDS_P1;SDS_P2;PMS_P1;PMS_P2;Temp;Humidity;BMP_temperature;BMP_pressure;BME280_temperature;BME280_humidity;BME280_pressure;Samples;Min_cycle;Max_cycle;Signal;HPM_P1;HPM_P2
2023/04/27 00:01:47;;;;;;;1999.90;999.90;;;4.50;99.90;;;;;;5094549;28;20045;-71
2023/04/27 00:04:15;;;;;;;1999.90;999.90;;;4.50;99.90;;;;;;5094013;28;20037;-72
2023/04/27 00:06:41;;;;;;;1999.90;999.90;;;4.50;99.90;;;;;;5094212;28;20028;-72
2023/04/27 00:09:06;;;;;;;1999.90;999.90;;;4.40;99.90;;;;;;5093566;28;20037;-71
2023/04/27 00:11:32;;;;;;;1999.90;999.90;;;4.40;99.90;;;;;;5075819;28;20024;-72
2023/04/27 00:13:57;;;;;;;1999.90;999.90;;;4.40;99.90;;;;;;5093841;28;20032;-72
2023/04/27 00:16:23;;;;;;;1999.90;999.90;;;4.40;99.90;;;;;;5094227;28;20494;-71
2023/04/27 00:18:48;;;;;;;1999.90;999.90;;;4.40;99.90;;;;;;5093892;28;20474;-72
2023/04/27 00:21:14;;;;;;;1999.90;999.90;;;4.40;99.90;;;;;;5094175;28;20039;-71
2023/04/27 00:23:40;;;;;;;1999.90;999.90;;;4.40;99.90;;;;;;5093977;28;20033;-71
2023/04/27 00:26:05;;;;;;;1999.90;999.90;;;4.40;99.90;;;;;;5093849;28;20387;-70
2023/04/27 00:28:31;;;;;;;1999.90;999.90;;;4.30;99.90;;;;;;5093866;28;20037;-72
2023/04/27 00:30:56;;;;;;;1999.90;999.90;;;4.30;99.90;;;;;;5075580;28;20123;-71
2023/04/27 00:33:22;;;;;;;1999.90;999.90;;;4.30;99.90;;;;;;5094270;28;20039;-71
2023/04/27 00:35:47;;;;;;;1999.90;999.90;;;4.30;99.90;;;;;;5097206;28;20036;-72
2023/04/27 00:38:13;;;;;;;1999.90;999.90;;;4.30;99.90;;;;;;5097229;28;20429;-71
2023/04/27 00:40:38;;;;;;;1999.90;999.90;;;4.30;99.90;;;;;;5097351;28;20040;-71
2023/04/27 00:43:04;;;;;;;1999.90;999.90;;;4.20;99.90;;;;;;5078778;28;20425;-71
2023/04/27 00:45:30;;;;;;;1999.90;999.90;;;4.20;99.90;;;;;;5097087;28;20029;-72
2023/04/27 00:47:56;;;;;;;1999.90;999.90;;;4.10;99.90;;;;;;5097162;28;20110;-72
2023/04/27 00:50:31;;;;;;;1999.90;999.90;;;4.10;99.90;;;;;;5097231;28;20514;-71
2023/04/27 00:52:56;;;;;;;1999.90;999.90;;;4.00;99.90;;;;;;5097459;28;20033;-71
2023/04/27 00:55:23;;;;;;;1999.90;999.90;;;4.00;99.90;;;;;;5097061;28;20037;-71
2023/04/27 00:57:48;;;;;;;1999.90;999.90;;;3.90;99.90;;;;;;5097061;28;20545;-71
2023/04/27 01:00:14;;;;;;;1999.90;999.90;;;4.00;99.90;;;;;;5096754;28;20103;-71
2023/04/27 01:02:40;;;;;;;1999.90;999.90;;;4.00;99.90;;;;;;5096733;28;20474;-72
2023/04/27 01:05:07;;;;;;;1999.90;999.90;;;3.90;99.90;;;;;;5096800;28;20416;-71
2023/04/27 01:07:36;;;;;;;1999.90;999.90;;;3.90;99.90;;;;;;5096905;28;20028;-72
2023/04/27 01:10:02;;;;;;;1999.90;999.90;;;3.90;99.90;;;;;;5096489;28;20029;-71
2023/04/27 01:12:28;;;;;;;1999.90;999.90;;;3.90;99.90;;;;;;5097078;28;20036;-71
2023/04/27 01:14:53;;;;;;;1999.90;999.90;;;3.90;99.90;;;;;;5096584;28;20036;-71
2023/04/27 01:17:19;;;;;;;1999.90;999.90;;;3.80;99.90;;;;;;5096575;28;20064;-71
2023/04/27 01:19:45;;;;;;;1999.90;999.90;;;3.70;99.90;;;;;;5096893;28;20029;-71
2023/04/27 01:22:10;;;;;;;1999.90;999.90;;;3.70;99.90;;;;;;5096588;28;20035;-71
2023/04/27 01:24:36;;;;;;;1999.90;999.90;;;3.60;99.90;;;;;;5096389;28;20037;-72
2023/04/27 01:27:02;;;;;;;1999.90;999.90;;;3.60;99.90;;;;;;5096783;28;20028;-72
2023/04/27 01:29:28;;;;;;;1999.90;999.90;;;3.50;99.90;;;;;;5096280;28;20029;-71
2023/04/27 01:31:54;;;;;;;1999.90;999.90;;;3.60;99.90;;;;;;5096485;28;20036;-71
2023/04/27 01:34:19;;;;;;;1999.90;999.90;;;3.60;99.90;;;;;;5096418;28;20486;-71
2023/04/27 01:36:45;;;;;;;1999.90;999.90;;;3.60;99.90;;;;;;5096150;28;20037;-71
2023/04/27 01:39:10;;;;;;;1999.90;999.90;;;3.50;99.90;;;;;;5101901;28;20032;-71
2023/04/27 01:41:36;;;;;;;1999.90;999.90;;;3.50;99.90;;;;;;5101700;28;20441;-71
2023/04/27 01:44:02;;;;;;;1999.90;999.90;;;3.50;99.90;;;;;;5095879;28;20040;-71
2023/04/27 01:46:27;;;;;;;1999.90;999.90;;;3.50;99.90;;;;;;5095273;28;20482;-71
2023/04/27 01:48:53;;;;;;;1999.90;999.90;;;3.50;99.90;;;;;;5095494;28;20047;-71
2023/04/27 01:51:19;;;;;;;1999.90;999.90;;;3.50;99.90;;;;;;5077627;28;26549;-71
2023/04/27 01:53:45;;;;;;;1999.90;999.90;;;3.50;99.90;;;;;;5096243;28;20487;-71
2023/04/27 01:56:10;;;;;;;1999.90;999.90;;;3.60;99.90;;;;;;5096150;28;20037;-71
2023/04/27 01:58:36;;;;;;;1999.90;999.90;;;3.60;99.90;;;;;;5096228;28;20032;-71
2023/04/27 02:01:02;;;;;;;1999.90;999.90;;;3.50;99.90;;;;;;5095883;28;20482;-71
2023/04/27 02:03:27;;;;;;;1999.90;999.90;;;3.40;99.90;;;;;;5096071;28;20110;-71
2023/04/27 02:05:53;;;;;;;1999.90;999.90;;;3.40;99.90;;;;;;5095917;28;20079;-71
2023/04/27 02:08:18;;;;;;;1999.90;999.90;;;3.50;99.90;;;;;;5095518;28;20036;-71
2023/04/27 02:10:44;;;;;;;1999.90;999.90;;;3.50;99.90;;;;;;5095607;28;20518;-72
2023/04/27 02:13:10;;;;;;;1999.90;999.90;;;3.40;99.90;;;;;;5095885;28;20040;-71
2023/04/27 02:15:35;;;;;;;1999.90;999.90;;;3.40;99.90;;;;;;5095445;28;20099;-71
2023/04/27 02:18:02;;;;;;;1999.90;999.90;;;3.40;99.90;;;;;;5095905;28;20081;-72
2023/04/27 02:20:31;;;;;;;1999.90;999.90;;;3.40;99.90;;;;;;5095706;28;20040;-71
2023/04/27 02:22:57;;;;;;;1999.90;999.90;;;3.30;99.90;;;;;;5095821;28;20486;-72
2023/04/27 02:25:22;;;;;;;1999.90;999.90;;;3.30;99.90;;;;;;5095417;28;20032;-71
2023/04/27 02:27:48;;;;;;;1999.90;999.90;;;3.20;99.90;;;;;;5095853;28;20037;-72
2023/04/27 02:30:14;;;;;;;1999.90;999.90;;;3.20;99.90;;;;;;5095146;28;20040;-71
2023/04/27 02:32:40;;;;;;;1999.90;999.90;;;3.20;99.90;;;;;;5096008;28;20033;-71
2023/04/27 02:35:06;;;;;;;1999.90;999.90;;;3.20;99.90;;;;;;5095427;28;20052;-71
2023/04/27 02:37:32;;;;;;;1999.90;999.90;;;3.30;99.90;;;;;;5095507;28;20025;-71
2023/04/27 02:39:58;;;;;;;1999.90;999.90;;;3.40;99.90;;;;;;5095109;28;20037;-72
2023/04/27 02:42:24;;;;;;;1999.90;999.90;;;3.30;99.90;;;;;;5095511;28;20394;-71
2023/04/27 02:44:49;;;;;;;1999.90;999.90;;;3.40;99.90;;;;;;5094706;28;20041;-71
2023/04/27 02:47:15;;;;;;;1999.90;999.90;;;3.40;99.90;;;;;;5076931;28;20020;-71
2023/04/27 02:49:41;;;;;;;1999.90;999.90;;;3.50;99.90;;;;;;5095158;28;20086;-71
2023/04/27 02:52:06;;;;;;;1999.90;999.90;;;3.60;99.90;;;;;;5095306;28;20479;-71
2023/04/27 02:54:33;;;;;;;1999.90;999.90;;;3.70;99.90;;;;;;5095099;28;20091;-71
2023/04/27 02:56:58;;;;;;;1999.90;999.90;;;3.90;99.90;;;;;;5094879;28;20107;-71
2023/04/27 02:59:24;;;;;;;1999.90;999.90;;;4.00;99.90;;;;;;5094823;28;20108;-71
2023/04/27 03:01:49;;;;;;;1999.90;999.90;;;4.10;99.90;;;;;;5076693;28;20043;-72
2023/04/27 03:04:16;;;;;;;1999.90;999.90;;;4.20;99.90;;;;;;5094883;28;20116;-71
2023/04/27 03:06:42;;;;;;;1999.90;999.90;;;4.30;99.90;;;;;;5095359;28;20028;-71
2023/04/27 03:09:14;;;;;;;1999.90;999.90;;;4.30;99.90;;;;;;5094662;28;20032;-72
2023/04/27 03:11:40;;;;;;;1999.90;999.90;;;4.30;99.90;;;;;;5095088;28;20486;-72
2023/04/27 03:14:05;;;;;;;1999.90;999.90;;;4.30;99.90;;;;;;5094673;28;20048;-71
2023/04/27 03:16:32;;;;;;;1999.90;999.90;;;4.40;99.90;;;;;;5076212;28;21043;-71
2023/04/27 03:18:57;;;;;;;1999.90;999.90;;;4.30;99.90;;;;;;5094958;28;20037;-72
2023/04/27 03:21:23;;;;;;;1999.90;999.90;;;4.40;99.90;;;;;;5094972;28;20037;-71
2023/04/27 03:23:48;;;;;;;1999.90;999.90;;;4.50;99.90;;;;;;5094473;28;20482;-71
2023/04/27 03:26:14;;;;;;;1999.90;999.90;;;4.60;99.90;;;;;;5076283;28;20497;-72
2023/04/27 03:28:41;;;;;;;1999.90;999.90;;;4.60;99.90;;;;;;5094306;28;20413;-72
2023/04/27 03:31:08;;;;;;;1999.90;999.90;;;4.50;99.90;;;;;;5094899;28;20470;-72
2023/04/27 03:33:35;;;;;;;1999.90;999.90;;;4.60;99.90;;;;;;5097076;28;20044;-72
2023/04/27 03:36:01;;;;;;;1999.90;999.90;;;4.60;99.90;;;;;;5098828;28;20764;-72
2023/04/27 03:38:27;;;;;;;1999.90;999.90;;;4.70;99.90;;;;;;5099607;28;20036;-72
2023/04/27 03:40:53;;;;;;;1999.90;999.90;;;4.70;99.90;;;;;;5080839;28;20033;-72
2023/04/27 03:43:20;;;;;;;1999.90;999.90;;;4.70;99.90;;;;;;5099410;28;20504;-72
2023/04/27 03:45:46;;;;;;;1999.90;999.90;;;4.80;99.90;;;;;;5103744;28;20078;-72
2023/04/27 03:48:12;;;;;;;1999.90;999.90;;;4.80;99.90;;;;;;5101258;28;20070;-72
2023/04/27 03:50:38;;;;;;;1999.90;999.90;;;4.80;99.90;;;;;;5098155;28;20037;-71
2023/04/27 03:53:03;;;;;;;1999.90;999.90;;;4.90;99.90;;;;;;5094608;28;20052;-70
2023/04/27 03:55:30;;;;;;;1999.90;999.90;;;4.90;99.90;;;;;;5093530;28;20028;-71
2023/04/27 03:57:55;;;;;;;1999.90;999.90;;;4.90;99.90;;;;;;5094481;28;20032;-71
2023/04/27 04:00:21;;;;;;;1999.90;999.90;;;5.00;99.90;;;;;;5094523;28;20037;-71
2023/04/27 04:02:46;;;;;;;1999.90;999.90;;;5.00;99.90;;;;;;5075929;28;20060;-71
2023/04/27 04:05:13;;;;;;;1999.90;999.90;;;5.00;99.90;;;;;;5093766;28;21990;-71
2023/04/27 04:07:42;;;;;;;1999.90;999.90;;;5.00;99.90;;;;;;5095136;28;20442;-72
2023/04/27 04:10:08;;;;;;;1999.90;999.90;;;5.00;99.90;;;;;;5104391;22;20131;-71
2023/04/27 04:12:34;;;;;;;1999.90;999.90;;;5.00;99.90;;;;;;5078553;28;20033;-71
2023/04/27 04:14:59;;;;;;;1999.90;999.90;;;5.10;99.90;;;;;;5076908;28;20029;-73
2023/04/27 04:17:25;;;;;;;1999.90;999.90;;;5.10;99.90;;;;;;5077403;28;20473;-71
2023/04/27 04:19:51;;;;;;;1999.90;999.90;;;5.10;99.90;;;;;;5077541;28;20104;-71
2023/04/27 04:22:16;;;;;;;1999.90;999.90;;;5.10;99.90;;;;;;5077294;28;20497;-72
2023/04/27 04:24:43;;;;;;;1999.90;999.90;;;5.20;99.90;;;;;;5077189;28;20041;-71
2023/04/27 04:27:08;;;;;;;1999.90;999.90;;;5.20;99.90;;;;;;5077210;28;20033;-70
2023/04/27 04:29:34;;;;;;;1999.90;999.90;;;5.20;99.90;;;;;;5077134;28;20041;-70
2023/04/27 04:31:59;;;;;;;1999.90;999.90;;;5.30;99.90;;;;;;5077566;28;20040;-70
2023/04/27 04:34:26;;;;;;;1999.90;999.90;;;5.40;99.90;;;;;;5077070;28;20036;-72
2023/04/27 04:36:51;;;;;;;1999.90;999.90;;;5.40;99.90;;;;;;5077525;28;20029;-72
2023/04/27 04:39:21;;;;;;;1999.90;999.90;;;5.40;99.90;;;;;;5076885;28;20041;-71
2023/04/27 04:41:48;;;;;;;1999.90;999.90;;;5.50;99.90;;;;;;5076890;28;20517;-71
2023/04/27 04:44:14;;;;;;;1999.90;999.90;;;5.50;99.90;;;;;;5058405;28;20045;-72
2023/04/27 04:46:40;;;;;;;1999.90;999.90;;;5.50;99.90;;;;;;5058995;28;20036;-71
2023/04/27 04:49:06;;;;;;;1999.90;999.90;;;5.60;99.90;;;;;;5076980;28;20037;-71
2023/04/27 04:51:31;;;;;;;1999.90;999.90;;;5.60;99.90;;;;;;5077094;28;20025;-73
2023/04/27 04:53:57;;;;;;;1999.90;999.90;;;5.60;99.90;;;;;;5076786;28;20033;-71
2023/04/27 04:56:23;;;;;;;1999.90;999.90;;;5.60;99.90;;;;;;5076882;28;20025;-72
2023/04/27 04:58:48;;;;;;;1999.90;999.90;;;5.60;99.90;;;;;;5058213;28;20049;-71
2023/04/27 05:01:13;;;;;;;1999.90;999.90;;;5.60;99.90;;;;;;5076841;28;20029;-72
2023/04/27 05:03:39;;;;;;;1999.90;999.90;;;5.70;99.90;;;;;;5076295;28;20044;-73
2023/04/27 05:06:05;;;;;;;1999.90;999.90;;;5.70;99.90;;;;;;5076565;28;20029;-72
2023/04/27 05:08:30;;;;;;;1999.90;999.90;;;5.80;99.90;;;;;;5076314;28;20041;-72
2023/04/27 05:10:56;;;;;;;1999.90;999.90;;;5.90;99.90;;;;;;5076711;28;20494;-72
2023/04/27 05:13:23;;;;;;;1999.90;999.90;;;5.90;99.90;;;;;;5076748;28;20040;-74
2023/04/27 05:15:49;;;;;;;1999.90;999.90;;;6.00;99.90;;;;;;5058034;28;20148;-73
2023/04/27 05:18:15;;;;;;;1999.90;999.90;;;6.00;99.90;;;;;;5058177;28;20490;-74
2023/04/27 05:20:40;;;;;;;1999.90;999.90;;;6.00;99.90;;;;;;5076556;28;20037;-73
2023/04/27 05:23:06;;;;;;;1999.90;999.90;;;6.00;99.90;;;;;;5076528;28;20087;-73
2023/04/27 05:25:32;;;;;;;1999.90;999.90;;;6.20;99.90;;;;;;5076336;28;20029;-73
2023/04/27 05:27:58;;;;;;;1999.90;999.90;;;6.30;99.90;;;;;;5076634;28;20060;-73
2023/04/27 05:30:24;;;;;;;1999.90;999.90;;;6.30;99.90;;;;;;5076112;28;20103;-73
2023/04/27 05:32:49;;;;;;;1999.90;999.90;;;6.40;99.90;;;;;;5076164;28;20044;-73
2023/04/27 05:35:15;;;;;;;1999.90;999.90;;;6.40;99.90;;;;;;5076231;28;20076;-73
2023/04/27 05:37:40;;;;;;;1999.90;999.90;;;6.50;99.90;;;;;;5057867;28;20033;-73
2023/04/27 05:40:10;;;;;;;1999.90;999.90;;;6.60;99.90;;;;;;5075928;28;20029;-73
2023/04/27 05:42:35;;;;;;;1999.90;999.90;;;6.60;99.90;;;;;;5076114;28;20033;-73
2023/04/27 05:45:02;;;;;;;1999.90;999.90;;;6.60;99.90;;;;;;5075540;28;20669;-73
2023/04/27 05:47:29;;;;;;;1999.90;999.90;;;6.70;99.90;;;;;;5057651;28;20072;-74
2023/04/27 05:49:54;;;;;;;1999.90;999.90;;;6.80;99.90;;;;;;5075774;28;20033;-73
2023/04/27 05:52:20;;;;;;;1999.90;999.90;;;6.90;99.90;;;;;;5076220;28;20029;-73
2023/04/27 05:54:49;;;;;;;1999.90;999.90;;;6.90;99.90;;;;;;5075713;28;20028;-73
2023/04/27 05:57:15;;;;;;;1999.90;999.90;;;7.00;99.90;;;;;;5057590;28;20466;-73
2023/04/27 05:59:42;;;;;;;1999.90;999.90;;;7.00;99.90;;;;;;5075955;28;20037;-74
2023/04/27 06:02:08;;;;;;;1999.90;999.90;;;7.10;99.90;;;;;;5075881;28;20039;-73
2023/04/27 06:04:35;;;;;;;1999.90;999.90;;;7.20;99.90;;;;;;5075588;28;20488;-73
2023/04/27 06:07:02;;;;;;;1999.90;999.90;;;7.30;99.90;;;;;;5075829;28;20119;-73
2023/04/27 06:09:29;;;;;;;1999.90;999.90;;;7.40;99.90;;;;;;5075260;28;20044;-73
2023/04/27 06:11:54;;;;;;;1999.90;999.90;;;7.50;99.90;;;;;;5057388;28;20029;-73
2023/04/27 06:14:20;;;;;;;1999.90;999.90;;;7.50;99.90;;;;;;5075581;28;20041;-73
2023/04/27 06:16:45;;;;;;;1999.90;999.90;;;7.60;99.90;;;;;;5075722;28;20033;-73
2023/04/27 06:19:11;;;;;;;1999.90;999.90;;;7.60;99.90;;;;;;5075018;28;20029;-73
2023/04/27 06:21:36;;;;;;;1999.90;999.90;;;7.80;99.90;;;;;;5075688;28;20033;-74
2023/04/27 06:24:02;;;;;;;1999.90;999.90;;;7.80;99.90;;;;;;5075311;28;20036;-73
2023/04/27 06:26:27;;;;;;;1999.90;999.90;;;8.00;99.90;;;;;;5075608;28;20039;-73
2023/04/27 06:28:55;;;;;;;1999.90;999.90;;;8.10;99.90;;;;;;5075406;28;20068;-74
2023/04/27 06:31:20;;;;;;;1999.90;999.90;;;8.20;99.90;;;;;;5074402;28;20044;-73
2023/04/27 06:33:46;;;;;;;1999.90;999.90;;;8.40;99.90;;;;;;5075292;28;20029;-74
2023/04/27 06:36:11;;;;;;;1999.90;999.90;;;8.50;99.90;;;;;;5074895;28;22216;-74
2023/04/27 06:38:37;;;;;;;1999.90;999.90;;;8.60;99.90;;;;;;5075178;28;20029;-73
2023/04/27 06:41:03;;;;;;;1999.90;999.90;;;8.60;99.90;;;;;;5057015;28;20052;-74
2023/04/27 06:43:29;;;;;;;1999.90;999.90;;;8.80;99.90;;;;;;5057054;28;20041;-74
2023/04/27 06:45:55;;;;;;;1999.90;999.90;;;8.90;99.90;;;;;;5075252;28;20033;-73
2023/04/27 06:48:23;;;;;;;1999.90;999.90;;;9.10;99.90;;;;;;5075216;28;20033;-74
2023/04/27 06:50:48;;;;;;;1999.90;999.90;;;9.10;99.90;;;;;;5075911;28;20029;-73
2023/04/27 06:53:16;;;;;;;1999.90;999.90;;;9.10;99.90;;;;;;5075201;28;20082;-73
2023/04/27 06:55:42;;;;;;;1999.90;999.90;;;9.20;99.90;;;;;;5074826;28;20028;-73
2023/04/27 06:58:07;;;;;;;1999.90;999.90;;;9.30;99.90;;;;;;5075115;28;20036;-73
2023/04/27 07:00:36;;;;;;;1999.90;999.90;;;9.40;99.90;;;;;;5075451;28;20083;-73
2023/04/27 07:03:01;;;;;;;1999.90;999.90;;;9.60;99.90;;;;;;5056226;28;20029;-73
2023/04/27 07:05:27;;;;;;;1999.90;999.90;;;9.70;99.90;;;;;;5074595;28;20041;-73
2023/04/27 07:07:52;;;;;;;1999.90;999.90;;;9.80;99.90;;;;;;5074882;28;20037;-73
2023/04/27 07:10:18;;;;;;;1999.90;999.90;;;10.10;99.90;;;;;;5074201;28;20068;-74
2023/04/27 07:12:43;;;;;;;1999.90;999.90;;;10.20;99.90;;;;;;5056591;28;20112;-74
2023/04/27 07:15:09;;;;;;;1999.90;999.90;;;10.20;99.90;;;;;;5056161;28;20037;-74
2023/04/27 07:17:35;;;;;;;1999.90;999.90;;;10.30;99.90;;;;;;5074837;28;20061;-74
2023/04/27 07:20:02;;;;;;;1999.90;999.90;;;10.50;99.90;;;;;;5074838;28;20044;-74
2023/04/27 07:22:28;;;;;;;1999.90;999.90;;;10.60;99.90;;;;;;5074814;28;20120;-74
2023/04/27 07:24:53;;;;;;;1999.90;999.90;;;10.70;99.90;;;;;;5073507;28;21521;-74
2023/04/27 07:27:20;;;;;;;1999.90;999.90;;;10.80;99.90;;;;;;5074556;28;20040;-74
2023/04/27 07:29:46;;;;;;;1999.90;999.90;;;10.90;99.90;;;;;;5074181;28;20604;-73
2023/04/27 07:32:11;;;;;;;1999.90;999.90;;;10.80;99.90;;;;;;5074279;28;20163;-74
2023/04/27 07:34:37;;;;;;;1999.90;999.90;;;11.00;99.90;;;;;;5073680;28;20037;-74
2023/04/27 07:37:02;;;;;;;1999.90;999.90;;;11.30;99.90;;;;;;5074401;28;20033;-74
2023/04/27 07:39:28;;;;;;;1999.90;999.90;;;11.60;99.90;;;;;;5073789;28;20471;-74
2023/04/27 07:41:53;;;;;;;1999.90;999.90;;;11.50;99.90;;;;;;5074562;28;20040;-74
2023/04/27 07:44:20;;;;;;;1999.90;999.90;;;11.70;99.90;;;;;;5077416;28;20041;-74
2023/04/27 07:46:47;;;;;;;1999.90;999.90;;;11.80;99.40;;;;;;5059790;28;20033;-74
2023/04/27 07:49:13;;;;;;;1999.90;999.90;;;11.90;99.50;;;;;;5077626;28;20103;-74
2023/04/27 07:51:39;;;;;;;1999.90;999.90;;;11.80;99.60;;;;;;5077873;28;20025;-74
2023/04/27 07:54:05;;;;;;;1999.90;999.90;;;11.90;99.60;;;;;;5077560;28;20041;-74
2023/04/27 07:56:31;;;;;;;1999.90;999.90;;;12.10;99.70;;;;;;5077860;28;20031;-74
2023/04/27 07:58:57;;;;;;;1999.90;999.90;;;12.50;99.80;;;;;;5059320;28;20037;-74
2023/04/27 08:01:22;;;;;;;1999.90;999.90;;;12.80;98.50;;;;;;5059461;28;20080;-74
2023/04/27 08:03:48;;;;;;;1999.90;999.90;;;13.20;98.40;;;;;;5077074;28;20044;-74
2023/04/27 08:06:14;;;;;;;1999.90;999.90;;;13.40;98.10;;;;;;5059148;28;20029;-74
2023/04/27 08:08:39;;;;;;;1999.90;999.90;;;13.50;96.60;;;;;;5077089;28;20099;-74
2023/04/27 08:11:09;;;;;;;1999.90;999.90;;;13.50;97.00;;;;;;5059361;28;20112;-74
2023/04/27 08:13:35;;;;;;;1999.90;999.90;;;13.50;96.30;;;;;;5059105;28;20383;-74
2023/04/27 08:16:00;;;;;;;1999.90;999.90;;;13.00;97.20;;;;;;5059084;28;20086;-74
2023/04/27 08:18:26;;;;;;;1999.90;999.90;;;12.90;97.50;;;;;;5077399;28;20040;-74
2023/04/27 08:20:52;;;;;;;1999.90;999.90;;;13.00;97.20;;;;;;5077314;28;20064;-74
2023/04/27 08:23:18;;;;;;;1999.90;999.90;;;13.10;97.30;;;;;;5077339;28;20090;-74
2023/04/27 08:25:43;;;;;;;1999.90;999.90;;;13.00;97.90;;;;;;5058707;28;20029;-74
2023/04/27 08:28:09;;;;;;;1999.90;999.90;;;13.00;97.30;;;;;;5058445;28;25086;-74
2023/04/27 08:30:35;;;;;;;1999.90;999.90;;;13.00;96.90;;;;;;5058493;28;20049;-74
2023/04/27 08:33:00;;;;;;;1999.90;999.90;;;13.30;97.80;;;;;;5058634;28;20064;-74
2023/04/27 08:35:26;;;;;;;1999.90;999.90;;;13.40;97.50;;;;;;5076733;28;20036;-74
2023/04/27 08:37:53;;;;;;;1999.90;999.90;;;13.50;96.90;;;;;;5058986;28;20531;-74
2023/04/27 08:40:19;;;;;;;1999.90;999.90;;;13.50;96.60;;;;;;5058678;28;20394;-74
2023/04/27 08:42:56;;;;;;;1999.90;999.90;;;13.50;96.10;;;;;;5058849;28;20048;-75
2023/04/27 08:45:26;;;;;;;1999.90;999.90;;;13.60;96.30;;;;;;5058497;28;20498;-75
2023/04/27 08:47:52;;;;;;;1999.90;999.90;;;13.50;97.00;;;;;;5058885;28;20033;-75
2023/04/27 08:50:18;;;;;;;1999.90;999.90;;;13.70;96.70;;;;;;5077022;28;20502;-74
2023/04/27 08:52:45;;;;;;;1999.90;999.90;;;13.70;97.10;;;;;;5058434;28;20525;-74
2023/04/27 08:55:11;;;;;;;1999.90;999.90;;;13.80;97.30;;;;;;5075941;28;20465;-74
2023/04/27 08:57:37;;;;;;;1999.90;999.90;;;13.90;96.40;;;;;;5058621;28;20098;-74
2023/04/27 09:00:11;;;;;;;1999.90;999.90;;;13.90;96.20;;;;;;5076699;28;20028;-74
2023/04/27 09:02:42;;;;;;;1999.90;999.90;;;14.20;96.20;;;;;;5058538;28;20119;-74
2023/04/27 09:05:17;;;;;;;1999.90;999.90;;;14.50;97.40;;;;;;5076678;28;20848;-75
2023/04/27 09:07:58;;;;;;;1999.90;999.90;;;14.50;95.60;;;;;;5076993;28;20031;-74
2023/04/27 09:10:23;;;;;;;1999.90;999.90;;;14.60;93.60;;;;;;5076242;28;20041;-74
2023/04/27 09:12:57;;;;;;;1999.90;999.90;;;14.60;93.70;;;;;;5076453;28;20066;-74
2023/04/27 09:15:22;;;;;;;1999.90;999.90;;;14.70;95.30;;;;;;5076438;28;20029;-74
2023/04/27 09:17:56;;;;;;;1999.90;999.90;;;14.80;95.20;;;;;;5076409;28;20029;-74
2023/04/27 09:20:21;;;;;;;1999.90;999.90;;;14.90;95.00;;;;;;5076479;28;20028;-74
2023/04/27 09:22:53;;;;;;;1999.90;999.90;;;15.00;93.60;;;;;;5076151;28;20461;-74
2023/04/27 09:25:25;;;;;;;1999.90;999.90;;;15.20;92.70;;;;;;5076189;28;20037;-74
2023/04/27 09:27:50;;;;;;;1999.90;999.90;;;15.30;92.00;;;;;;5076312;28;20108;-74
2023/04/27 09:30:17;;;;;;;1999.90;999.90;;;15.60;91.80;;;;;;5076411;28;20120;-75
2023/04/27 09:32:55;;;;;;;1999.90;999.90;;;15.80;91.50;;;;;;5058173;28;20033;-74
2023/04/27 09:35:26;;;;;;;1999.90;999.90;;;15.90;92.50;;;;;;5057680;28;20041;-74
2023/04/27 09:37:52;;;;;;;1999.90;999.90;;;15.80;90.70;;;;;;5057885;28;20029;-74
2023/04/27 09:40:28;;;;;;;1999.90;999.90;;;15.90;90.40;;;;;;5057914;28;20537;-74
2023/04/27 09:43:00;;;;;;;1999.90;999.90;;;15.70;90.40;;;;;;5076059;28;20495;-75
2023/04/27 09:45:26;;;;;;;1999.90;999.90;;;15.80;90.90;;;;;;5076015;28;20036;-75
2023/04/27 09:47:52;;;;;;;1999.90;999.90;;;15.90;88.80;;;;;;5076134;28;20109;-74
2023/04/27 09:50:18;;;;;;;1999.90;999.90;;;15.80;87.40;;;;;;5057539;28;20121;-74
2023/04/27 09:52:45;;;;;;;1999.90;999.90;;;15.90;87.60;;;;;;5076125;28;20033;-74
2023/04/27 09:55:17;;;;;;;1999.90;999.90;;;16.10;88.20;;;;;;5075663;28;20079;-74
2023/04/27 09:58:02;;;;;;;1999.90;999.90;;;16.40;86.70;;;;;;5057500;28;20029;-75
2023/04/27 10:00:56;;;;;;;1999.90;999.90;;;16.40;87.80;;;;;;5075650;28;20040;-75
2023/04/27 10:03:31;;;;;;;1999.90;999.90;;;16.70;82.20;;;;;;5075988;28;20041;-74
2023/04/27 10:06:25;;;;;;;1999.90;999.90;;;17.00;85.80;;;;;;5074611;28;20033;-75
2023/04/27 10:08:51;;;;;;;1999.90;999.90;;;17.00;82.30;;;;;;5091998;22;20112;-75
2023/04/27 10:11:18;;;;;;;1999.90;999.90;;;16.80;84.60;;;;;;5116966;28;20052;-75
2023/04/27 10:13:54;;;;;;;1999.90;999.90;;;16.90;79.90;;;;;;5119170;28;20028;-75
2023/04/27 10:16:21;;;;;;;1999.90;999.90;;;16.60;83.00;;;;;;5119091;28;20032;-75
2023/04/27 10:18:54;;;;;;;1999.90;999.90;;;16.90;81.30;;;;;;5118167;28;20107;-75
2023/04/27 10:21:20;;;;;;;1999.90;999.90;;;16.90;81.60;;;;;;5099654;28;20496;-75
2023/04/27 10:23:50;;;;;;;1999.90;999.90;;;16.90;82.90;;;;;;5118528;28;20086;-75
2023/04/27 10:26:26;;;;;;;1999.90;999.90;;;17.20;81.50;;;;;;5099715;28;20028;-75
2023/04/27 10:28:57;;;;;;;1999.90;999.90;;;16.90;81.10;;;;;;5118782;28;20115;-75
2023/04/27 10:31:28;;;;;;;1999.90;999.90;;;16.70;80.40;;;;;;5118561;28;20028;-75
2023/04/27 10:34:05;;;;;;;1999.90;999.90;;;16.90;80.00;;;;;;5099393;28;20036;-75
2023/04/27 10:36:36;;;;;;;1999.90;999.90;;;16.90;79.90;;;;;;5099969;28;20054;-75
2023/04/27 10:39:03;;;;;;;1999.90;999.90;;;17.00;77.40;;;;;;5118351;28;20038;-75
2023/04/27 10:41:35;;;;;;;1999.90;999.90;;;17.10;78.10;;;;;;5118242;28;20060;-75
2023/04/27 10:44:18;;;;;;;1999.90;999.90;;;17.20;82.50;;;;;;5117352;28;20067;-75
2023/04/27 10:46:51;;;;;;;1999.90;999.90;;;17.80;77.40;;;;;;5117684;28;20082;-78
2023/04/27 10:49:16;;;;;;;1999.90;999.90;;;17.90;77.60;;;;;;5117302;28;20028;-75
2023/04/27 10:51:42;;;;;;;1999.90;999.90;;;18.20;75.20;;;;;;5117200;28;20103;-80
2023/04/27 10:54:08;;;;;;;1999.90;999.90;;;18.30;74.60;;;;;;5116680;28;20044;-76
2023/04/27 10:56:33;;;;;;;1999.90;999.90;;;18.30;73.60;;;;;;5098974;28;20040;-74
2023/04/27 10:59:04;;;;;;;1999.90;999.90;;;18.20;76.10;;;;;;5098234;28;20042;-76
2023/04/27 11:01:29;;;;;;;1999.90;999.90;;;18.10;75.30;;;;;;5116352;28;20505;-78
2023/04/27 11:03:56;;;;;;;1999.90;999.90;;;17.70;78.30;;;;;;5115941;28;20105;-73
2023/04/27 11:06:22;;;;;;;1999.90;999.90;;;17.70;73.80;;;;;;5115361;28;20035;-74
2023/04/27 11:08:47;;;;;;;1999.90;999.90;;;17.90;73.00;;;;;;5096961;28;20401;-73
2023/04/27 11:11:17;;;;;;;1999.90;999.90;;;18.70;71.90;;;;;;5097109;28;20038;-74
2023/04/27 11:13:43;;;;;;;1999.90;999.90;;;18.80;70.30;;;;;;5115667;28;20038;-76
2023/04/27 11:16:10;;;;;;;1999.90;999.90;;;18.70;75.00;;;;;;5097026;28;20032;-75
2023/04/27 11:18:37;;;;;;;1999.90;999.90;;;18.50;71.70;;;;;;5115400;28;20473;-76
2023/04/27 11:21:11;;;;;;;1999.90;999.90;;;18.80;69.80;;;;;;5096264;28;20115;-76
2023/04/27 11:23:38;;;;;;;1999.90;999.90;;;19.00;71.00;;;;;;5114513;28;20048;-76
2023/04/27 11:26:14;;;;;;;1999.90;999.90;;;19.00;69.80;;;;;;5115502;28;20482;-77
2023/04/27 11:28:45;;;;;;;1999.90;999.90;;;18.90;72.20;;;;;;5115145;28;20424;-76
2023/04/27 11:31:11;;;;;;;1999.90;999.90;;;19.30;68.40;;;;;;5096799;28;20493;-77
2023/04/27 11:33:38;;;;;;;1999.90;999.90;;;19.30;70.10;;;;;;5096557;28;20089;-74
2023/04/27 11:36:15;;;;;;;1999.90;999.90;;;19.30;67.50;;;;;;5116282;28;20020;-75
2023/04/27 11:38:41;;;;;;;1999.90;999.90;;;19.30;66.40;;;;;;5117145;28;20040;-79
2023/04/27 11:41:07;;;;;;;1999.90;999.90;;;18.90;66.80;;;;;;5116341;28;20035;-74
2023/04/27 11:43:33;;;;;;;1999.90;999.90;;;18.70;65.20;;;;;;5115669;28;20051;-77
2023/04/27 11:46:03;;;;;;;1999.90;999.90;;;19.10;67.40;;;;;;5115256;28;20508;-79
2023/04/27 11:48:29;;;;;;;1999.90;999.90;;;19.10;67.20;;;;;;5094785;28;20037;-75
2023/04/27 11:50:58;;;;;;;1999.90;999.90;;;19.10;67.80;;;;;;5076855;28;20028;-76
2023/04/27 11:53:34;;;;;;;1999.90;999.90;;;18.80;73.70;;;;;;5081909;28;20496;-74
2023/04/27 11:56:01;;;;;;;1999.90;999.90;;;18.90;66.90;;;;;;5106715;28;20036;-74
2023/04/27 11:58:28;;;;;;;1999.90;999.90;;;19.10;65.90;;;;;;5122285;28;20772;-73
2023/04/27 12:00:56;;;;;;;1999.90;999.90;;;19.30;67.40;;;;;;5114704;28;20521;-73
2023/04/27 12:03:22;;;;;;;1999.90;999.90;;;19.30;67.20;;;;;;5105953;28;20493;-74